Time;durP1;ratioP1;P1;durP2;ratioP2;P2;SDS_P1;SDS_P2;PMS_P1;PMS_P2;Temp;Humidity;BMP_temperature;BMP_pressure;BME280_temperature;BME280_humidity;BME280_pressure;Samples;Min_cycle;Max_cycle;Signal;HPM_P1;HPM_P2
2024/02/15 00:00:48;;;;;;;26.42;13.10;;;11.40;99.90;;;;;;5049689;28;20037;-65
2024/02/15 00:03:14;;;;;;;28.60;13.18;;;11.40;99.90;;;;;;5051206;28;20047;-65
2024/02/15 00:05:40;;;;;;;26.05;12.55;;;11.40;99.90;;;;;;5051672;28;20033;-65
2024/02/15 00:08:06;;;;;;;27.27;11.30;;;11.40;99.90;;;;;;5057316;28;20484;-65
2024/02/15 00:10:32;;;;;;;23.17;11.82;;;11.40;99.90;;;;;;5054682;28;20408;-65
2024/02/15 00:12:58;;;;;;;23.30;11.40;;;11.40;99.90;;;;;;5045432;28;20049;-65
2024/02/15 00:15:25;;;;;;;25.75;12.95;;;11.40;99.90;;;;;;5046565;28;20055;-64
2024/02/15 00:17:51;;;;;;;23.13;12.80;;;11.40;99.90;;;;;;5051143;28;20153;-64
2024/02/15 00:20:17;;;;;;;23.65;12.60;;;11.30;99.90;;;;;;5031610;28;20082;-65
2024/02/15 00:22:43;;;;;;;27.17;12.70;;;11.30;99.90;;;;;;5030791;28;20045;-65
2024/02/15 00:25:11;;;;;;;34.03;13.90;;;11.40;99.90;;;;;;5052081;28;20463;-65
2024/02/15 00:27:37;;;;;;;28.77;14.70;;;11.30;99.90;;;;;;5048890;28;20105;-64
2024/02/15 00:30:07;;;;;;;28.55;14.52;;;11.30;99.90;;;;;;5046027;28;20052;-65
2024/02/15 00:32:33;;;;;;;26.55;14.75;;;11.40;99.90;;;;;;5049513;28;20040;-65
2024/02/15 00:34:59;;;;;;;31.50;15.07;;;11.30;99.90;;;;;;5050377;28;20059;-63
2024/02/15 00:37:25;;;;;;;32.38;15.55;;;11.30;99.90;;;;;;5050220;28;20037;-64
2024/02/15 00:39:50;;;;;;;34.67;15.43;;;11.30;99.90;;;;;;5048545;28;20666;-65
2024/02/15 00:42:16;;;;;;;33.40;15.32;;;11.30;99.90;;;;;;5051615;28;20047;-65
2024/02/15 00:44:42;;;;;;;38.15;16.20;;;11.30;99.90;;;;;;5048642;28;20134;-63
2024/02/15 00:47:12;;;;;;;34.05;16.67;;;11.30;99.90;;;;;;5048975;28;20037;-64
2024/02/15 00:49:37;;;;;;;37.88;16.63;;;11.30;99.90;;;;;;5050891;28;20045;-64
2024/02/15 00:52:03;;;;;;;36.47;17.00;;;11.30;99.90;;;;;;5053149;28;20040;-67
2024/02/15 00:54:29;;;;;;;40.90;17.77;;;11.30;99.90;;;;;;5036454;28;20025;-65
2024/02/15 00:56:55;;;;;;;47.45;18.55;;;11.30;99.90;;;;;;5045839;28;20032;-63
2024/02/15 00:59:20;;;;;;;44.10;18.15;;;11.20;99.90;;;;;;5042773;28;20041;-64
2024/02/15 01:01:47;;;;;;;44.47;18.27;;;11.20;99.90;;;;;;5047964;28;20040;-64
2024/02/15 01:04:13;;;;;;;46.30;17.85;;;11.30;99.90;;;;;;5038345;28;20133;-63
2024/02/15 01:06:39;;;;;;;44.75;18.15;;;11.30;99.90;;;;;;5060062;28;20127;-63
2024/02/15 01:09:04;;;;;;;41.60;17.23;;;11.20;99.90;;;;;;5049520;28;20527;-64
2024/02/15 01:11:34;;;;;;;48.25;18.60;;;11.30;99.90;;;;;;5057178;28;20032;-64
2024/02/15 01:14:00;;;;;;;49.50;18.33;;;11.20;99.90;;;;;;5054018;28;20048;-64
2024/02/15 01:16:26;;;;;;;50.58;18.80;;;11.30;99.90;;;;;;5045285;28;20392;-65
2024/02/15 01:18:51;;;;;;;43.08;18.23;;;11.30;99.90;;;;;;5048604;28;20078;-63
2024/02/15 01:21:17;;;;;;;42.95;17.88;;;11.30;99.90;;;;;;5039257;28;20045;-63
2024/02/15 01:23:46;;;;;;;41.15;17.00;;;11.30;99.90;;;;;;5064902;28;20037;-67
2024/02/15 01:26:13;;;;;;;43.85;17.30;;;11.30;99.90;;;;;;5043605;28;20045;-64
2024/02/15 01:28:41;;;;;;;40.28;16.27;;;11.30;99.90;;;;;;5050193;28;20064;-63
2024/02/15 01:31:09;;;;;;;39.05;16.10;;;11.30;99.90;;;;;;5042304;28;20584;-63
2024/02/15 01:33:36;;;;;;;37.40;16.58;;;11.30;99.90;;;;;;5048986;28;20037;-63
2024/02/15 01:36:02;;;;;;;41.45;14.45;;;11.30;99.90;;;;;;5054451;28;20033;-63
2024/02/15 01:38:28;;;;;;;39.40;15.63;;;11.30;99.90;;;;;;5047239;28;20381;-63
2024/02/15 01:40:54;;;;;;;31.50;14.52;;;11.30;99.90;;;;;;5044582;28;20066;-63
2024/02/15 01:43:19;;;;;;;40.40;15.45;;;11.30;99.90;;;;;;5050140;28;20037;-64
2024/02/15 01:45:46;;;;;;;34.28;15.05;;;11.30;99.90;;;;;;5036689;28;20086;-64
2024/02/15 01:48:14;;;;;;;37.05;14.20;;;11.30;99.90;;;;;;5051682;28;20087;-63
2024/02/15 01:50:40;;;;;;;39.03;14.88;;;11.30;99.90;;;;;;5062655;28;20052;-63
2024/02/15 01:53:08;;;;;;;35.25;13.32;;;11.30;99.90;;;;;;5038568;28;20037;-64
2024/02/15 01:55:34;;;;;;;35.75;13.90;;;11.30;99.90;;;;;;5053345;28;20033;-64
2024/02/15 01:58:01;;;;;;;37.70;14.35;;;11.30;99.90;;;;;;5050003;28;20090;-64
2024/02/15 02:00:27;;;;;;;32.25;13.90;;;11.30;99.90;;;;;;5045447;28;20047;-65
2024/02/15 02:02:53;;;;;;;34.15;12.63;;;11.30;99.90;;;;;;5050425;28;20032;-64
2024/02/15 02:05:19;;;;;;;36.97;14.25;;;11.30;99.90;;;;;;5024922;28;20041;-63
2024/02/15 02:07:45;;;;;;;29.63;13.02;;;11.30;99.90;;;;;;5061553;28;20539;-65
2024/02/15 02:10:12;;;;;;;30.25;11.45;;;11.30;99.90;;;;;;5043678;28;20044;-63
2024/02/15 02:12:40;;;;;;;34.60;11.13;;;11.30;99.90;;;;;;5048325;28;20386;-65
2024/02/15 02:15:11;;;;;;;33.38;11.80;;;11.30;99.90;;;;;;5040188;28;20037;-63
2024/02/15 02:17:37;;;;;;;29.73;11.23;;;11.30;99.90;;;;;;5056017;28;20159;-64
2024/02/15 02:20:08;;;;;;;32.53;11.75;;;11.30;99.90;;;;;;5051071;28;20042;-64
2024/02/15 02:22:35;;;;;;;33.30;12.15;;;11.30;99.90;;;;;;5037092;28;20047;-64
2024/02/15 02:25:08;;;;;;;32.55;13.10;;;11.30;99.90;;;;;;5041493;28;20045;-64
2024/02/15 02:27:34;;;;;;;34.47;12.85;;;11.30;99.90;;;;;;5047675;28;20069;-64
2024/02/15 02:30:00;;;;;;;32.20;13.43;;;11.30;99.90;;;;;;5047267;28;20048;-66
2024/02/15 02:32:28;;;;;;;31.30;13.15;;;11.40;99.90;;;;;;5049236;28;20033;-64
2024/02/15 02:34:57;;;;;;;34.97;14.43;;;11.30;99.90;;;;;;5057652;28;20461;-67
2024/02/15 02:37:25;;;;;;;35.15;15.75;;;11.40;99.90;;;;;;5048516;28;20028;-65
2024/02/15 02:39:51;;;;;;;33.63;15.23;;;11.50;99.90;;;;;;5041920;28;20159;-64
2024/02/15 02:42:17;;;;;;;40.38;15.68;;;11.40;99.90;;;;;;5046000;28;20063;-64
2024/02/15 02:44:43;;;;;;;33.13;15.57;;;11.40;99.90;;;;;;5047093;28;20434;-64
2024/02/15 02:47:09;;;;;;;36.92;15.68;;;11.40;99.90;;;;;;5042466;28;20041;-64
2024/02/15 02:49:38;;;;;;;40.40;16.58;;;11.40;99.90;;;;;;5045510;28;20037;-64
2024/02/15 02:52:04;;;;;;;36.90;16.98;;;11.40;99.90;;;;;;5047528;28;20045;-65
2024/02/15 02:54:30;;;;;;;38.30;16.42;;;11.40;99.90;;;;;;5048969;28;20056;-65
2024/02/15 02:56:56;;;;;;;37.00;16.00;;;11.50;99.90;;;;;;5035296;28;20578;-65
2024/02/15 02:59:22;;;;;;;37.17;16.17;;;11.40;99.90;;;;;;5030937;28;20045;-65
2024/02/15 03:01:48;;;;;;;38.30;16.55;;;11.50;99.90;;;;;;5057588;28;20037;-65
2024/02/15 03:04:16;;;;;;;32.38;15.68;;;11.50;99.90;;;;;;5047567;28;20108;-65
2024/02/15 03:06:43;;;;;;;36.45;15.77;;;11.50;99.90;;;;;;5048954;28;20045;-65
2024/02/15 03:09:09;;;;;;;35.33;16.35;;;11.50;99.90;;;;;;5052506;28;20052;-65
2024/02/15 03:11:35;;;;;;;39.47;15.90;;;11.50;99.90;;;;;;5053261;28;20056;-64
2024/02/15 03:14:04;;;;;;;34.45;16.77;;;11.50;99.90;;;;;;5061936;28;20051;-64
2024/02/15 03:16:30;;;;;;;36.05;17.10;;;11.50;99.90;;;;;;5058064;28;20246;-64
2024/02/15 03:18:56;;;;;;;37.90;16.88;;;11.50;99.90;;;;;;5054495;28;20052;-65
2024/02/15 03:21:22;;;;;;;30.83;16.08;;;11.50;99.90;;;;;;5056313;28;20029;-64
2024/02/15 03:23:47;;;;;;;39.45;17.25;;;11.50;99.90;;;;;;5065161;28;20111;-64
2024/02/15 03:26:13;;;;;;;35.88;17.75;;;11.50;99.90;;;;;;5054870;28;20131;-65
2024/02/15 03:28:39;;;;;;;34.22;16.65;;;11.50;99.90;;;;;;5050665;28;20096;-65
2024/02/15 03:31:05;;;;;;;34.70;18.30;;;11.50;99.90;;;;;;5070120;28;20059;-65
2024/02/15 03:33:34;;;;;;;45.08;18.63;;;11.50;99.90;;;;;;5055985;28;20037;-65
2024/02/15 03:36:00;;;;;;;42.05;18.85;;;11.50;99.90;;;;;;5064397;28;20094;-63
2024/02/15 03:38:29;;;;;;;37.53;18.02;;;11.50;99.90;;;;;;5051557;28;20041;-65
2024/02/15 03:40:55;;;;;;;39.42;19.40;;;11.50;99.90;;;;;;5047055;28;20436;-65
2024/02/15 03:43:21;;;;;;;41.25;19.02;;;11.50;99.90;;;;;;5058702;28;20037;-65
2024/02/15 03:45:46;;;;;;;39.33;19.90;;;11.50;99.90;;;;;;5052732;28;20036;-65
2024/02/15 03:48:12;;;;;;;45.85;20.77;;;11.50;99.90;;;;;;5061137;28;20036;-64
2024/02/15 03:50:38;;;;;;;42.13;19.20;;;11.50;99.90;;;;;;5056171;28;20180;-65
2024/02/15 03:53:04;;;;;;;42.42;19.80;;;11.50;99.90;;;;;;5058974;28;20044;-65
2024/02/15 03:55:29;;;;;;;42.95;20.45;;;11.60;99.90;;;;;;5051820;28;20108;-65
2024/02/15 03:57:57;;;;;;;42.25;20.35;;;11.50;99.90;;;;;;5057466;28;20033;-65
2024/02/15 04:00:24;;;;;;;48.55;20.65;;;11.60;99.90;;;;;;5048489;28;20044;-65
2024/02/15 04:02:50;;;;;;;39.10;20.77;;;11.50;99.90;;;;;;5040150;28;20052;-65
2024/02/15 04:05:18;;;;;;;46.40;22.10;;;11.60;99.90;;;;;;5064791;28;20105;-65
2024/02/15 04:07:44;;;;;;;47.70;22.48;;;11.60;99.90;;;;;;5047565;28;20037;-65
2024/02/15 04:10:09;;;;;;;47.72;23.42;;;11.60;99.90;;;;;;5048079;28;20045;-65
2024/02/15 04:12:35;;;;;;;45.15;23.10;;;11.60;99.90;;;;;;5057989;28;20053;-65
2024/02/15 04:15:05;;;;;;;45.35;22.70;;;11.60;99.90;;;;;;5049200;28;20042;-65
2024/02/15 04:17:34;;;;;;;50.08;23.65;;;11.60;99.90;;;;;;5041185;28;20078;-65
2024/02/15 04:20:00;;;;;;;47.33;23.13;;;11.60;99.90;;;;;;5062692;28;20048;-65
2024/02/15 04:22:26;;;;;;;46.63;24.38;;;11.60;99.90;;;;;;5053519;28;20037;-65
2024/02/15 04:24:52;;;;;;;52.17;24.25;;;11.60;99.90;;;;;;5053609;28;20041;-65
2024/02/15 04:27:20;;;;;;;52.42;24.92;;;11.60;99.90;;;;;;5060936;28;20055;-64
2024/02/15 04:29:46;;;;;;;47.63;24.60;;;11.60;99.90;;;;;;5053246;28;20051;-64
2024/02/15 04:32:13;;;;;;;58.35;25.60;;;11.60;99.90;;;;;;5045249;28;20037;-64
2024/02/15 04:34:39;;;;;;;52.95;27.15;;;11.60;99.90;;;;;;5058470;28;20045;-64
2024/02/15 04:37:08;;;;;;;50.25;25.13;;;11.60;99.90;;;;;;5051037;28;20044;-64
2024/02/15 04:39:35;;;;;;;56.25;26.80;;;11.60;99.90;;;;;;5052206;28;20037;-64
2024/02/15 04:42:02;;;;;;;59.33;27.23;;;11.60;99.90;;;;;;5043141;28;20397;-64
2024/02/15 04:44:27;;;;;;;55.67;27.55;;;11.60;99.90;;;;;;5046297;28;20076;-65
2024/02/15 04:46:53;;;;;;;59.63;27.73;;;11.60;99.90;;;;;;5055139;28;20440;-64
2024/02/15 04:49:20;;;;;;;53.05;27.65;;;11.60;99.90;;;;;;5053942;28;20084;-64
2024/02/15 04:51:47;;;;;;;50.38;27.80;;;11.60;99.90;;;;;;5053570;28;20124;-64
2024/02/15 04:54:13;;;;;;;57.70;27.05;;;11.60;99.90;;;;;;5045347;28;20040;-64
2024/02/15 04:56:42;;;;;;;60.15;27.75;;;11.60;99.90;;;;;;5052762;28;20056;-64
2024/02/15 04:59:11;;;;;;;54.28;27.85;;;11.60;99.90;;;;;;5060961;28;20385;-64
2024/02/15 05:01:37;;;;;;;50.17;27.17;;;11.60;99.90;;;;;;5052933;28;20492;-64
2024/02/15 05:04:07;;;;;;;55.08;27.98;;;11.60;99.90;;;;;;5039226;28;20049;-64
2024/02/15 05:06:33;;;;;;;58.35;28.30;;;11.60;99.90;;;;;;5049612;28;20091;-64
2024/02/15 05:09:07;;;;;;;53.47;26.65;;;11.60;99.90;;;;;;5053431;28;20130;-64
2024/02/15 05:11:35;;;;;;;52.47;26.00;;;11.70;99.90;;;;;;5046828;28;20558;-64
2024/02/15 05:14:01;;;;;;;52.53;26.75;;;11.60;99.90;;;;;;5057187;28;20032;-64
2024/02/15 05:16:27;;;;;;;58.78;27.67;;;11.60;99.90;;;;;;5055406;28;20033;-64
2024/02/15 05:18:53;;;;;;;51.67;26.58;;;11.60;99.90;;;;;;5055177;28;20506;-64
2024/02/15 05:21:19;;;;;;;50.88;25.90;;;11.60;99.90;;;;;;5054471;28;20045;-64
2024/02/15 05:23:45;;;;;;;53.58;25.80;;;11.60;99.90;;;;;;5056217;28;20111;-64
2024/02/15 05:26:12;;;;;;;53.15;25.88;;;11.60;99.90;;;;;;5055450;28;20116;-64
2024/02/15 05:28:38;;;;;;;54.95;25.83;;;11.60;99.90;;;;;;5058923;28;20404;-64
2024/02/15 05:31:20;;;;;;;49.97;24.65;;;11.60;99.90;;;;;;5049705;28;20044;-64
2024/02/15 05:33:49;;;;;;;47.70;24.67;;;11.60;99.90;;;;;;5050004;28;20037;-64
2024/02/15 05:36:20;;;;;;;43.42;24.27;;;11.50;99.90;;;;;;5036552;28;20034;-64
2024/02/15 05:38:53;;;;;;;45.25;24.00;;;11.50;99.90;;;;;;5035305;28;20062;-64
2024/02/15 05:41:20;;;;;;;51.08;24.60;;;11.50;99.90;;;;;;5059153;28;20102;-64
2024/02/15 05:43:48;;;;;;;49.30;23.50;;;11.50;99.90;;;;;;5047751;28;20107;-64
2024/02/15 05:46:14;;;;;;;41.25;22.92;;;11.50;99.90;;;;;;5058516;28;20047;-64
2024/02/15 05:48:40;;;;;;;49.15;23.02;;;11.50;99.90;;;;;;5058993;28;20040;-64
2024/02/15 05:51:07;;;;;;;38.95;21.67;;;11.50;99.90;;;;;;5052916;28;20506;-65
2024/02/15 05:53:35;;;;;;;43.15;23.17;;;11.50;99.90;;;;;;5035175;28;20037;-64
2024/02/15 05:56:04;;;;;;;56.08;21.80;;;11.50;99.90;;;;;;5048097;28;20518;-65
2024/02/15 05:58:30;;;;;;;44.30;21.23;;;11.50;99.90;;;;;;5057576;28;20578;-64
2024/02/15 06:01:01;;;;;;;41.25;20.55;;;11.50;99.90;;;;;;5061869;28;20056;-64
2024/02/15 06:03:29;;;;;;;40.17;21.13;;;11.50;99.90;;;;;;5048683;28;20399;-64
2024/02/15 06:05:58;;;;;;;42.53;20.45;;;11.50;99.90;;;;;;5048788;28;20033;-65
2024/02/15 06:08:24;;;;;;;37.30;19.45;;;11.50;99.90;;;;;;5036712;28;20043;-64
2024/02/15 06:10:50;;;;;;;37.10;19.75;;;11.50;99.90;;;;;;5041374;28;20063;-64
2024/02/15 06:13:16;;;;;;;38.60;19.10;;;11.50;99.90;;;;;;5048252;28;20163;-64
2024/02/15 06:15:42;;;;;;;37.97;20.13;;;11.60;99.90;;;;;;5049046;28;20443;-64
2024/02/15 06:18:09;;;;;;;35.58;19.27;;;11.50;99.90;;;;;;5043627;28;20472;-65
2024/02/15 06:20:35;;;;;;;38.88;18.90;;;11.60;99.90;;;;;;5046406;28;20037;-65
2024/02/15 06:23:04;;;;;;;35.47;19.38;;;11.60;99.90;;;;;;5039376;28;20037;-65
2024/02/15 06:25:31;;;;;;;39.05;19.25;;;11.60;99.90;;;;;;5038736;28;20037;-65
2024/02/15 06:28:01;;;;;;;35.63;18.58;;;11.60;99.90;;;;;;5052532;28;20539;-65
2024/02/15 06:41:26;;;;;;;33.63;17.98;;;11.60;99.90;;;;;;5046064;28;20049;-64
2024/02/15 06:43:51;;;;;;;38.42;18.80;;;11.60;99.90;;;;;;5047814;28;20040;-64
2024/02/15 06:46:19;;;;;;;33.42;17.88;;;11.60;99.90;;;;;;5045585;28;20389;-64
2024/02/15 06:48:44;;;;;;;40.20;18.00;;;11.60;99.90;;;;;;5047284;28;20505;-64
2024/02/15 06:51:14;;;;;;;36.33;18.35;;;11.60;99.90;;;;;;5044507;28;20049;-64
2024/02/15 06:53:40;;;;;;;38.65;17.80;;;11.60;99.90;;;;;;5049980;28;20033;-64
2024/02/15 06:56:09;;;;;;;34.80;17.15;;;11.60;99.90;;;;;;5051201;28;20048;-64
2024/02/15 06:58:36;;;;;;;31.13;18.10;;;11.60;99.90;;;;;;5051027;28;20041;-64
2024/02/15 07:01:01;;;;;;;32.97;17.95;;;11.60;99.90;;;;;;5054145;28;20451;-64
2024/02/15 07:03:29;;;;;;;35.88;17.73;;;11.60;99.90;;;;;;5049694;28;20038;-64
2024/02/15 07:05:56;;;;;;;30.70;17.38;;;11.60;99.90;;;;;;5050564;28;20037;-64
2024/02/15 07:08:24;;;;;;;33.28;17.90;;;11.60;99.90;;;;;;5048742;28;20068;-64
2024/02/15 07:10:51;;;;;;;35.08;17.60;;;11.60;99.90;;;;;;5050202;28;20052;-64
2024/02/15 07:13:17;;;;;;;31.55;17.67;;;11.60;99.90;;;;;;5040140;28;20041;-64
2024/02/15 07:15:44;;;;;;;29.48;16.45;;;11.60;99.90;;;;;;5046529;28;20034;-64
2024/02/15 07:18:12;;;;;;;38.53;17.67;;;11.60;99.90;;;;;;5053952;28;20550;-64
2024/02/15 07:20:37;;;;;;;36.97;17.25;;;11.60;99.90;;;;;;5040265;28;20447;-64
2024/02/15 07:23:03;;;;;;;31.80;16.65;;;11.60;99.90;;;;;;5041715;28;20057;-65
2024/02/15 07:25:29;;;;;;;32.92;16.48;;;11.60;99.90;;;;;;5048527;28;20029;-65
2024/02/15 07:27:56;;;;;;;32.13;15.55;;;11.60;99.90;;;;;;5046451;28;20108;-65
2024/02/15 07:30:22;;;;;;;33.10;16.63;;;11.60;99.90;;;;;;5052856;28;20041;-65
2024/02/15 07:32:49;;;;;;;32.20;15.75;;;11.60;99.90;;;;;;5051792;28;20033;-65
2024/02/15 07:35:17;;;;;;;28.73;16.13;;;11.60;99.90;;;;;;5049811;28;20041;-65
2024/02/15 07:37:58;;;;;;;30.25;15.88;;;11.60;99.90;;;;;;5046984;28;20129;-65
2024/02/15 07:40:28;;;;;;;27.83;14.75;;;11.60;99.90;;;;;;5043414;28;20485;-65
2024/02/15 07:42:56;;;;;;;32.88;15.43;;;11.60;99.90;;;;;;5048626;28;20048;-65
2024/02/15 07:45:23;;;;;;;27.10;14.15;;;11.60;99.90;;;;;;5047652;28;20072;-65
2024/02/15 07:47:48;;;;;;;34.15;14.73;;;11.60;99.90;;;;;;5047302;28;20170;-65
2024/02/15 07:50:22;;;;;;;23.95;14.45;;;11.60;99.90;;;;;;5042433;28;20467;-65
2024/02/15 07:52:49;;;;;;;24.20;13.88;;;11.60;99.90;;;;;;5052547;28;20037;-65
2024/02/15 07:55:15;;;;;;;26.33;14.25;;;11.60;99.90;;;;;;5039564;28;20108;-65
2024/02/15 07:57:40;;;;;;;24.45;14.10;;;11.70;99.90;;;;;;5038536;28;20037;-65
2024/02/15 08:00:11;;;;;;;27.77;15.27;;;11.60;99.90;;;;;;5037301;28;20025;-65
2024/02/15 08:02:42;;;;;;;22.33;13.90;;;11.60;99.90;;;;;;5048158;28;20052;-65
2024/02/15 08:05:10;;;;;;;27.92;14.57;;;11.70;99.90;;;;;;5053417;28;20037;-65
2024/02/15 08:07:42;;;;;;;23.35;14.18;;;11.70;99.90;;;;;;5050134;28;20764;-65
2024/02/15 08:10:13;;;;;;;29.08;14.90;;;11.70;99.90;;;;;;5050807;28;20091;-65
2024/02/15 08:12:43;;;;;;;33.38;14.75;;;11.70;99.90;;;;;;5054125;28;20044;-65
2024/02/15 08:15:11;;;;;;;21.17;12.90;;;11.70;99.90;;;;;;5043468;28;20037;-65
2024/02/15 08:17:47;;;;;;;30.23;14.00;;;11.70;99.90;;;;;;5045161;28;20045;-65
2024/02/15 08:20:14;;;;;;;23.85;13.93;;;11.70;99.90;;;;;;5044294;28;20040;-65
2024/02/15 08:22:40;;;;;;;23.20;13.65;;;11.70;99.90;;;;;;5049937;28;20045;-65
2024/02/15 08:25:11;;;;;;;26.27;14.27;;;11.80;99.90;;;;;;5042231;28;20044;-65
2024/02/15 08:27:44;;;;;;;22.55;13.20;;;11.70;99.90;;;;;;5047998;28;20389;-65
2024/02/15 08:30:13;;;;;;;23.75;13.82;;;11.80;99.90;;;;;;5048480;28;20055;-65
2024/02/15 08:32:43;;;;;;;29.83;13.95;;;11.80;99.90;;;;;;5049648;28;20132;-66
2024/02/15 08:35:10;;;;;;;24.13;14.13;;;11.80;99.90;;;;;;5050641;28;20101;-65
2024/02/15 08:37:39;;;;;;;26.67;13.65;;;11.80;99.90;;;;;;5043962;28;20497;-65
2024/02/15 08:40:10;;;;;;;19.25;13.02;;;11.80;99.90;;;;;;5054984;28;20041;-65
2024/02/15 08:42:45;;;;;;;20.50;13.07;;;11.80;99.90;;;;;;5055843;28;20501;-66
2024/02/15 08:45:12;;;;;;;22.52;13.63;;;11.80;99.90;;;;;;5052090;28;20500;-66
2024/02/15 08:47:42;;;;;;;24.80;12.80;;;11.80;99.90;;;;;;5043835;28;20043;-65
2024/02/15 08:50:10;;;;;;;24.17;12.93;;;11.80;99.90;;;;;;5046102;28;20051;-66
2024/02/15 08:52:39;;;;;;;26.08;13.60;;;11.80;99.90;;;;;;5045275;28;20412;-65
2024/02/15 08:55:09;;;;;;;26.20;13.15;;;11.80;99.90;;;;;;5047457;28;20120;-65
2024/02/15 08:57:36;;;;;;;24.33;13.50;;;11.80;99.90;;;;;;5039137;28;20050;-66
2024/02/15 09:00:13;;;;;;;24.73;13.00;;;11.80;99.90;;;;;;5048052;28;20131;-65
2024/02/15 09:02:47;;;;;;;25.35;13.23;;;11.80;99.90;;;;;;5050306;28;20037;-66
2024/02/15 09:05:14;;;;;;;20.95;12.88;;;11.80;99.90;;;;;;5044530;28;20396;-66
2024/02/15 09:07:44;;;;;;;24.70;14.18;;;11.80;99.90;;;;;;5039209;28;20044;-65
2024/02/15 09:10:11;;;;;;;22.48;12.68;;;11.80;99.90;;;;;;5044523;28;20069;-65
2024/02/15 09:12:42;;;;;;;21.38;12.40;;;11.90;99.90;;;;;;5041100;28;20037;-65
2024/02/15 09:15:08;;;;;;;24.17;12.18;;;11.80;99.90;;;;;;5048225;28;20507;-65
2024/02/15 09:17:40;;;;;;;19.83;12.35;;;11.90;99.90;;;;;;5045416;28;20056;-65
2024/02/15 09:20:08;;;;;;;26.05;12.27;;;11.90;99.90;;;;;;5043425;28;20047;-66
2024/02/15 09:22:35;;;;;;;20.40;11.63;;;11.90;99.90;;;;;;5046847;28;20382;-65
2024/02/15 09:25:02;;;;;;;18.50;10.95;;;11.90;99.90;;;;;;5048875;28;20130;-66
2024/02/15 09:27:28;;;;;;;18.13;10.73;;;11.90;99.90;;;;;;5022762;28;20103;-66
2024/02/15 09:29:55;;;;;;;18.25;10.27;;;11.90;99.90;;;;;;5047824;28;20493;-65
2024/02/15 09:32:22;;;;;;;18.30;10.80;;;11.90;99.90;;;;;;5046393;28;20041;-66
2024/02/15 09:34:49;;;;;;;19.90;10.70;;;11.90;99.90;;;;;;5042999;28;20025;-66
2024/02/15 09:37:15;;;;;;;16.38;10.18;;;12.00;99.90;;;;;;5048407;28;20514;-66
2024/02/15 09:39:41;;;;;;;18.27;10.95;;;11.90;99.90;;;;;;5031913;28;20124;-66
2024/02/15 09:42:07;;;;;;;14.73;9.32;;;12.00;99.90;;;;;;5040905;28;20405;-65
2024/02/15 09:44:32;;;;;;;16.35;9.05;;;12.00;99.90;;;;;;5034544;28;20072;-66
2024/02/15 09:47:05;;;;;;;14.30;8.95;;;12.00;99.90;;;;;;5045300;28;20067;-65
2024/02/15 09:49:39;;;;;;;13.93;9.63;;;12.00;99.90;;;;;;5042465;28;20050;-66
2024/02/15 09:52:15;;;;;;;13.85;8.80;;;12.00;99.90;;;;;;5041425;28;20400;-66
2024/02/15 09:54:45;;;;;;;12.25;7.85;;;12.10;99.90;;;;;;5043416;28;20112;-65
2024/02/15 09:57:11;;;;;;;11.70;8.25;;;12.10;99.90;;;;;;5037153;28;20048;-65
2024/02/15 09:59:41;;;;;;;13.75;8.18;;;12.10;99.90;;;;;;5043525;28;20503;-66
2024/02/15 10:02:10;;;;;;;16.02;8.65;;;12.20;99.90;;;;;;5044867;28;20526;-66
2024/02/15 10:04:39;;;;;;;11.82;7.82;;;12.20;99.90;;;;;;5044065;28;20404;-65
2024/02/15 10:07:04;;;;;;;12.57;7.97;;;12.20;99.90;;;;;;5040897;28;20045;-65
2024/02/15 10:09:30;;;;;;;12.35;7.57;;;12.20;99.90;;;;;;5041143;28;20163;-65
2024/02/15 10:11:58;;;;;;;10.15;7.10;;;12.20;99.90;;;;;;5046090;28;20106;-65
2024/02/15 10:14:25;;;;;;;14.00;7.38;;;12.30;99.90;;;;;;5042437;28;20048;-65
2024/02/15 10:16:52;;;;;;;11.88;7.93;;;12.30;99.90;;;;;;5046112;28;20504;-65
2024/02/15 10:19:20;;;;;;;9.57;6.78;;;12.20;99.90;;;;;;5040937;28;20045;-65
2024/02/15 10:21:46;;;;;;;9.90;7.18;;;12.30;99.90;;;;;;5051626;28;20052;-65
2024/02/15 10:24:12;;;;;;;9.25;6.40;;;12.30;99.90;;;;;;5048684;28;20432;-65
2024/02/15 10:26:37;;;;;;;14.07;7.07;;;12.30;99.90;;;;;;5043904;28;20048;-65
2024/02/15 10:29:08;;;;;;;8.93;6.65;;;12.30;99.90;;;;;;5042271;28;20152;-65
2024/02/15 10:31:39;;;;;;;9.93;6.10;;;12.40;99.90;;;;;;5047498;28;20052;-65
2024/02/15 10:34:07;;;;;;;10.30;5.88;;;12.30;99.90;;;;;;5048390;28;20431;-65
2024/02/15 10:36:33;;;;;;;12.10;6.57;;;12.40;99.90;;;;;;5045965;28;20116;-65
2024/02/15 10:39:19;;;;;;;10.35;5.75;;;12.40;99.90;;;;;;5047489;28;20119;-65
2024/02/15 10:41:52;;;;;;;10.57;5.93;;;12.30;99.90;;;;;;5039326;28;20068;-65
2024/02/15 10:44:23;;;;;;;8.73;5.88;;;12.30;99.90;;;;;;5047121;28;20045;-65
2024/02/15 10:46:52;;;;;;;9.55;5.93;;;12.30;99.90;;;;;;5028739;28;20110;-65
2024/02/15 10:49:21;;;;;;;8.27;5.70;;;12.30;99.90;;;;;;5041030;28;20113;-65
2024/02/15 10:52:04;;;;;;;10.93;5.80;;;12.30;99.90;;;;;;5043921;28;20029;-65
2024/02/15 10:54:50;;;;;;;7.90;5.32;;;12.30;99.90;;;;;;5031398;28;20049;-66
2024/02/15 10:57:22;;;;;;;7.35;5.45;;;12.30;99.90;;;;;;5040537;28;20085;-66
2024/02/15 10:59:53;;;;;;;11.23;5.20;;;12.30;99.90;;;;;;5045100;28;20067;-65
2024/02/15 11:02:43;;;;;;;10.68;5.60;;;12.30;99.90;;;;;;5045567;28;20041;-66
2024/02/15 11:05:10;;;;;;;9.25;5.32;;;12.30;99.90;;;;;;5040683;28;20095;-66
2024/02/15 11:07:36;;;;;;;7.80;5.60;;;12.30;99.90;;;;;;5041941;28;20299;-65
2024/02/15 11:10:08;;;;;;;7.75;4.80;;;12.30;99.90;;;;;;5046205;28;20094;-65
2024/02/15 11:12:34;;;;;;;8.23;5.65;;;12.30;99.90;;;;;;5040829;28;20037;-64
2024/02/15 11:15:00;;;;;;;8.90;5.40;;;12.30;99.90;;;;;;5039723;28;20092;-65
2024/02/15 11:17:43;;;;;;;7.15;5.28;;;12.30;99.90;;;;;;5044569;28;20136;-65
2024/02/15 11:20:34;;;;;;;8.90;5.22;;;12.30;99.90;;;;;;5043588;28;20049;-65
2024/02/15 11:23:03;;;;;;;9.15;5.80;;;12.30;99.90;;;;;;5047050;28;20056;-66
2024/02/15 11:25:34;;;;;;;8.63;5.38;;;12.30;99.90;;;;;;5042985;28;20032;-65
2024/02/15 11:28:22;;;;;;;8.07;5.20;;;12.30;99.90;;;;;;5037191;28;20044;-65
2024/02/15 11:30:49;;;;;;;9.75;6.00;;;12.30;99.90;;;;;;5039174;28;20051;-66
2024/02/15 11:33:37;;;;;;;8.80;5.47;;;12.30;99.90;;;;;;5054486;28;20097;-67
2024/02/15 11:36:11;;;;;;;10.25;5.97;;;12.30;99.90;;;;;;5032368;28;20034;-66
2024/02/15 11:38:40;;;;;;;7.60;5.60;;;12.30;99.90;;;;;;5040492;28;20038;-68
2024/02/15 11:41:08;;;;;;;8.20;5.82;;;12.30;99.90;;;;;;5045964;28;20051;-67
2024/02/15 11:43:49;;;;;;;9.75;5.80;;;12.30;99.90;;;;;;5043308;28;20097;-67
2024/02/15 11:46:16;;;;;;;9.27;5.78;;;12.30;99.90;;;;;;5053963;28;20040;-66
2024/02/15 11:48:42;;;;;;;9.38;6.28;;;12.40;99.90;;;;;;5041661;28;20041;-67
2024/02/15 11:51:11;;;;;;;12.25;6.60;;;12.30;99.90;;;;;;5035855;28;20037;-68
2024/02/15 11:53:37;;;;;;;12.88;6.20;;;12.30;99.90;;;;;;5039690;28;20044;-67
2024/02/15 11:56:08;;;;;;;12.02;6.28;;;12.30;99.90;;;;;;5049726;28;20032;-66
2024/02/15 11:58:52;;;;;;;10.07;6.50;;;12.30;99.90;;;;;;5037476;28;20250;-66
2024/02/15 12:20:31;;;;;;;11.32;6.88;;;12.30;99.90;;;;;;5048930;28;20044;-68
2024/02/15 12:23:00;;;;;;;12.52;7.13;;;12.30;99.90;;;;;;5047530;28;20449;-68
2024/02/15 12:25:26;;;;;;;10.68;7.03;;;12.30;99.90;;;;;;5045831;28;20120;-68
2024/02/15 12:27:54;;;;;;;14.55;7.47;;;12.30;99.90;;;;;;5037576;28;20124;-68
2024/02/15 12:30:21;;;;;;;12.18;6.85;;;12.30;99.90;;;;;;5043612;28;20284;-68
2024/02/15 12:32:47;;;;;;;12.70;7.63;;;12.30;99.90;;;;;;5043691;28;20124;-68
2024/02/15 12:35:20;;;;;;;13.85;7.25;;;12.30;99.90;;;;;;5034266;28;20540;-69
2024/02/15 12:38:08;;;;;;;15.80;7.97;;;12.30;99.90;;;;;;5044366;28;20041;-69
2024/02/15 12:40:40;;;;;;;14.93;7.53;;;12.30;99.90;;;;;;5054096;28;20443;-69
2024/02/15 12:43:08;;;;;;;14.70;7.75;;;12.30;99.90;;;;;;5062998;28;20048;-69
2024/02/15 12:45:39;;;;;;;15.50;7.93;;;12.30;99.90;;;;;;5043090;28;20036;-69
2024/02/15 12:48:06;;;;;;;13.30;8.45;;;12.30;99.90;;;;;;5044784;28;20454;-69
2024/02/15 12:50:32;;;;;;;15.93;8.65;;;12.30;99.90;;;;;;5046538;28;20036;-69
2024/02/15 12:53:05;;;;;;;16.75;9.30;;;12.30;99.90;;;;;;5048881;28;20040;-69
2024/02/15 12:55:36;;;;;;;17.98;8.63;;;12.30;99.90;;;;;;5038332;28;20069;-69
2024/02/15 12:58:13;;;;;;;17.73;8.27;;;12.30;99.90;;;;;;5039050;28;20049;-69
2024/02/15 13:00:39;;;;;;;17.52;9.35;;;12.30;99.90;;;;;;5053379;28;20064;-68
2024/02/15 13:03:09;;;;;;;18.83;8.75;;;12.30;99.90;;;;;;5045088;28;20501;-69
2024/02/15 13:05:38;;;;;;;18.40;9.27;;;12.30;99.90;;;;;;5043574;28;20033;-69